createdAt,value
2018-09-19T00:01:49.460Z,20.50
2018-09-19T00:04:21.023Z,20.50
2018-09-19T00:06:52.205Z,20.50
2018-09-19T00:09:23.451Z,20.60
2018-09-19T00:11:54.554Z,20.60
2018-09-19T00:14:26.574Z,20.40
2018-09-19T00:16:57.565Z,20.40
2018-09-19T00:19:28.759Z,20.30
2018-09-19T00:21:59.802Z,20.30
2018-09-19T00:24:31.172Z,20.30
2018-09-19T00:27:02.299Z,20.30
2018-09-19T00:29:33.338Z,20.40
2018-09-19T00:32:04.542Z,20.20
2018-09-19T00:34:35.785Z,20.40
2018-09-19T00:37:07.020Z,20.40
2018-09-19T00:39:38.326Z,20.30
2018-09-19T00:42:09.474Z,20.30
2018-09-19T00:44:41.533Z,20.40
2018-09-19T00:47:12.818Z,20.60
2018-09-19T00:49:44.032Z,20.70
2018-09-19T00:52:15.041Z,20.70
2018-09-19T00:54:46.418Z,20.60
2018-09-19T00:57:17.727Z,20.70
2018-09-19T00:59:48.970Z,20.60
2018-09-19T01:02:20.172Z,20.60
2018-09-19T01:04:51.350Z,20.60
2018-09-19T01:07:22.391Z,20.50
2018-09-19T01:09:53.634Z,20.50
2018-09-19T01:12:24.937Z,20.30
2018-09-19T01:14:56.185Z,20.30
2018-09-19T01:17:27.529Z,20.30
2018-09-19T01:19:58.711Z,20.20
2018-09-19T01:22:29.719Z,20.10
2018-09-19T01:25:00.901Z,19.90
2018-09-19T01:27:32.067Z,19.80
2018-09-19T01:30:03.331Z,19.80
2018-09-19T01:32:35.157Z,19.70
2018-09-19T01:35:06.765Z,19.80
2018-09-19T01:37:37.848Z,19.90
2018-09-19T01:40:09.042Z,19.80
2018-09-19T01:42:40.469Z,19.80
2018-09-19T01:45:12.112Z,19.80
2018-09-19T01:47:43.207Z,20.00
2018-09-19T01:50:14.184Z,20.00
2018-09-19T01:52:45.407Z,20.00
2018-09-19T01:55:16.779Z,19.90
2018-09-19T01:57:47.792Z,19.90
2018-09-19T02:00:19.175Z,19.90
2018-09-19T02:02:50.541Z,19.80
2018-09-19T02:05:21.773Z,19.70
2018-09-19T02:07:53.128Z,19.60
2018-09-19T02:10:24.327Z,19.40
2018-09-19T02:12:55.632Z,19.20
2018-09-19T02:15:27.575Z,19.10
2018-09-19T02:17:58.904Z,19.10
2018-09-19T02:20:30.063Z,19.10
2018-09-19T02:23:01.640Z,19.10
2018-09-19T02:25:32.656Z,19.20
2018-09-19T02:28:04.241Z,19.20
2018-09-19T02:30:35.528Z,19.20
2018-09-19T02:33:06.915Z,19.10
2018-09-19T02:35:38.015Z,19.00
2018-09-19T02:38:09.202Z,19.10
2018-09-19T02:40:40.409Z,19.10
2018-09-19T02:43:11.695Z,19.10
2018-09-19T02:45:42.759Z,19.20
2018-09-19T02:48:13.981Z,19.20
2018-09-19T02:50:45.327Z,19.10
2018-09-19T02:53:16.653Z,19.10
2018-09-19T02:55:47.726Z,19.10
2018-09-19T02:58:18.784Z,19.30
2018-09-19T03:00:50.402Z,19.20
2018-09-19T03:03:21.694Z,19.10
2018-09-19T03:05:52.891Z,19.40
2018-09-19T03:08:23.912Z,19.40
2018-09-19T03:10:54.959Z,19.30
2018-09-19T03:13:26.392Z,19.40
2018-09-19T03:15:57.488Z,19.40
2018-09-19T03:18:28.991Z,19.20
2018-09-19T03:21:00.248Z,19.10
2018-09-19T03:23:32.095Z,19.40
2018-09-19T03:26:03.423Z,19.20
2018-09-19T03:28:34.844Z,19.10
2018-09-19T03:31:06.019Z,19.00
2018-09-19T03:33:37.387Z,19.10
2018-09-19T03:36:08.399Z,19.30
2018-09-19T03:38:39.754Z,19.40
2018-09-19T03:41:10.957Z,19.70
2018-09-19T03:43:42.131Z,19.80
2018-09-19T03:46:13.827Z,19.80
2018-09-19T03:48:44.987Z,20.00
2018-09-19T03:51:16.463Z,20.10
2018-09-19T03:53:47.723Z,20.10
2018-09-19T03:56:19.180Z,20.00
2018-09-19T03:58:50.751Z,20.20
2018-09-19T04:01:21.873Z,20.10
2018-09-19T04:03:53.076Z,20.20
2018-09-19T04:06:24.535Z,20.20
2018-09-19T04:08:55.821Z,20.20
2018-09-19T04:11:26.911Z,20.10
2018-09-19T04:13:58.007Z,20.10
2018-09-19T04:16:29.707Z,19.80
2018-09-19T04:19:00.972Z,19.60
2018-09-19T04:21:32.123Z,19.80
2018-09-19T04:24:03.359Z,19.60
2018-09-19T04:26:34.342Z,19.70
2018-09-19T04:29:05.597Z,19.60
2018-09-19T04:31:36.935Z,19.70
2018-09-19T04:34:08.145Z,19.90
2018-09-19T04:36:40.038Z,20.00
2018-09-19T04:39:13.297Z,19.90
2018-09-19T04:41:44.484Z,19.80
2018-09-19T04:44:15.635Z,19.80
2018-09-19T04:46:46.839Z,19.80
2018-09-19T04:49:18.029Z,19.70
2018-09-19T04:51:49.281Z,19.80
2018-09-19T04:54:20.417Z,19.80
2018-09-19T04:56:51.667Z,19.70
2018-09-19T04:59:23.276Z,19.70
2018-09-19T05:01:54.603Z,19.70
2018-09-19T05:04:25.664Z,19.70
2018-09-19T05:06:56.763Z,19.70
2018-09-19T05:09:27.965Z,19.70
2018-09-19T05:11:59.144Z,19.60
2018-09-19T05:14:30.348Z,19.60
2018-09-19T05:17:01.535Z,19.50
2018-09-19T05:19:32.730Z,19.50
2018-09-19T05:22:03.983Z,19.50
2018-09-19T05:24:35.158Z,19.50
2018-09-19T05:27:06.315Z,19.50
2018-09-19T05:29:37.345Z,19.40
2018-09-19T05:32:08.559Z,19.40
2018-09-19T05:34:39.863Z,19.40
2018-09-19T05:37:11.085Z,19.40
2018-09-19T05:39:42.503Z,19.30
2018-09-19T05:42:13.696Z,19.20
2018-09-19T05:44:44.831Z,19.10
2018-09-19T05:47:15.867Z,19.00
2018-09-19T05:49:47.236Z,19.00
2018-09-19T05:52:18.426Z,18.90
2018-09-19T05:54:49.605Z,18.90
2018-09-19T05:57:20.868Z,18.90
2018-09-19T05:59:52.012Z,18.80
2018-09-19T06:02:23.239Z,18.70
2018-09-19T06:04:54.614Z,18.70
2018-09-19T06:07:26.056Z,18.80
2018-09-19T06:09:57.350Z,18.80
2018-09-19T06:12:28.532Z,18.80
2018-09-19T06:14:59.538Z,18.80
2018-09-19T06:17:31.178Z,18.80
2018-09-19T06:20:02.382Z,18.80
2018-09-19T06:22:34.507Z,18.80
2018-09-19T06:25:06.062Z,18.80
2018-09-19T06:27:37.255Z,18.80
2018-09-19T06:30:08.710Z,18.70
2018-09-19T06:32:39.871Z,18.80
2018-09-19T06:35:11.084Z,18.80
2018-09-19T06:37:42.439Z,18.70
2018-09-19T06:40:13.652Z,18.70
2018-09-19T06:42:44.838Z,18.70
2018-09-19T06:45:15.828Z,18.70
2018-09-19T06:47:47.486Z,18.60
2018-09-19T06:50:18.775Z,18.70
2018-09-19T06:52:50.048Z,18.80
2018-09-19T06:55:21.372Z,18.80
2018-09-19T06:57:52.559Z,18.80
2018-09-19T07:00:23.555Z,18.90
2018-09-19T07:02:54.753Z,18.90
2018-09-19T07:05:25.748Z,19.00
2018-09-19T07:07:57.132Z,19.00
2018-09-19T07:10:28.379Z,19.00
2018-09-19T07:12:59.489Z,19.10
2018-09-19T07:15:31.005Z,19.10
2018-09-19T07:18:02.324Z,19.20
2018-09-19T07:20:33.484Z,19.30
2018-09-19T07:23:04.636Z,19.30
2018-09-19T07:25:35.860Z,19.20
2018-09-19T07:28:06.867Z,19.30
2018-09-19T07:30:38.224Z,19.40
2018-09-19T07:33:09.424Z,19.40
2018-09-19T07:35:40.670Z,19.50
2018-09-19T07:38:12.044Z,19.50
2018-09-19T07:40:43.200Z,19.50
2018-09-19T07:43:14.409Z,19.50
2018-09-19T07:45:46.203Z,19.40
2018-09-19T07:48:17.347Z,19.50
2018-09-19T07:50:48.853Z,19.60
2018-09-19T07:53:20.200Z,19.80
2018-09-19T07:55:51.611Z,20.00
2018-09-19T07:58:22.906Z,20.00
2018-09-19T08:00:55.140Z,20.30
2018-09-19T08:03:26.110Z,20.20
2018-09-19T08:05:57.288Z,20.00
2018-09-19T08:08:28.499Z,20.00
2018-09-19T08:10:59.744Z,20.10
2018-09-19T08:13:31.049Z,20.20
2018-09-19T08:16:02.082Z,20.50
2018-09-19T08:18:33.434Z,20.20
2018-09-19T08:21:04.484Z,20.10
2018-09-19T08:23:35.607Z,20.30
2018-09-19T08:26:06.646Z,20.50
2018-09-19T08:28:38.017Z,20.60
2018-09-19T08:31:09.199Z,20.50
2018-09-19T08:33:40.204Z,20.40
2018-09-19T08:36:11.735Z,20.40
2018-09-19T08:38:42.984Z,20.50
2018-09-19T08:41:14.534Z,20.50
2018-09-19T08:43:45.576Z,20.60
2018-09-19T08:46:16.926Z,20.70
2018-09-19T08:48:48.324Z,20.60
2018-09-19T08:51:19.586Z,20.50
2018-09-19T08:53:50.749Z,20.70
2018-09-19T08:56:22.119Z,20.80
2018-09-19T08:58:53.484Z,20.90
2018-09-19T09:01:24.716Z,20.90
2018-09-19T09:03:55.855Z,21.00
2018-09-19T09:06:27.049Z,21.10
2018-09-19T09:08:58.356Z,21.00
2018-09-19T09:11:29.759Z,21.10
2018-09-19T09:14:01.317Z,21.20
2018-09-19T09:16:32.409Z,21.20
2018-09-19T09:19:03.440Z,21.30
2018-09-19T09:21:34.793Z,21.40
2018-09-19T09:24:05.832Z,21.20
2018-09-19T09:26:37.211Z,21.00
2018-09-19T09:29:08.410Z,20.80
2018-09-19T09:31:39.567Z,20.70
2018-09-19T09:34:10.824Z,20.90
2018-09-19T09:36:41.997Z,21.30
2018-09-19T09:39:13.172Z,21.60
2018-09-19T09:41:45.638Z,21.30
2018-09-19T09:44:16.723Z,21.40
2018-09-19T09:46:48.070Z,21.60
2018-09-19T09:49:19.075Z,21.70
2018-09-19T09:51:50.526Z,22.00
2018-09-19T09:54:21.862Z,22.10
2018-09-19T09:56:53.266Z,22.30
2018-09-19T09:59:24.434Z,22.70
2018-09-19T10:01:55.655Z,22.50
2018-09-19T10:04:27.336Z,22.50
2018-09-19T10:06:58.603Z,22.60
2018-09-19T10:09:29.599Z,22.90
2018-09-19T10:12:00.831Z,23.50
2018-09-19T10:14:32.305Z,23.70
2018-09-19T10:17:03.556Z,23.60
2018-09-19T10:19:34.754Z,23.50
2018-09-19T10:22:06.002Z,23.50
2018-09-19T10:24:37.858Z,23.50
2018-09-19T10:27:08.943Z,24.30
2018-09-19T10:29:40.191Z,25.50
2018-09-19T10:32:11.544Z,26.40
2018-09-19T10:34:42.697Z,26.60
2018-09-19T10:37:13.708Z,26.80
2018-09-19T10:39:45.070Z,26.60
2018-09-19T10:42:16.278Z,26.80
2018-09-19T10:44:47.267Z,27.20
2018-09-19T10:47:19.278Z,27.80
2018-09-19T10:49:50.836Z,28.00
2018-09-19T10:52:22.019Z,28.10
2018-09-19T10:54:54.386Z,28.60
2018-09-19T10:57:25.379Z,28.50
2018-09-19T10:59:56.576Z,27.50
2018-09-19T11:02:27.787Z,28.30
2018-09-19T11:04:58.962Z,28.80
2018-09-19T11:07:30.439Z,28.80
2018-09-19T11:10:01.740Z,29.50
2018-09-19T11:12:32.930Z,29.20
2018-09-19T11:15:04.217Z,29.60
2018-09-19T11:17:35.557Z,29.70
2018-09-19T11:20:07.059Z,30.10
2018-09-19T11:22:38.580Z,29.70
2018-09-19T11:25:10.316Z,28.80
2018-09-19T11:27:41.495Z,28.90
2018-09-19T11:30:12.867Z,28.40
2018-09-19T11:32:44.022Z,27.70
2018-09-19T11:35:15.052Z,27.60
2018-09-19T11:37:46.219Z,27.30
2018-09-19T11:40:17.412Z,27.30
2018-09-19T11:42:48.896Z,27.60
2018-09-19T11:45:20.243Z,28.90
2018-09-19T11:47:51.409Z,29.60
2018-09-19T11:50:22.440Z,29.50
2018-09-19T11:52:53.826Z,30.40
2018-09-19T11:55:25.275Z,31.30
2018-09-19T11:57:56.627Z,31.10
2018-09-19T12:00:27.931Z,31.60
2018-09-19T12:02:59.111Z,30.50
2018-09-19T12:05:30.315Z,30.30
2018-09-19T12:08:01.528Z,30.40
2018-09-19T12:10:32.514Z,30.70
2018-09-19T12:13:04.055Z,31.40
2018-09-19T12:15:35.660Z,30.80
2018-09-19T12:18:06.763Z,31.20
2018-09-19T12:20:38.033Z,30.90
2018-09-19T12:23:09.765Z,31.20
2018-09-19T12:25:41.118Z,30.90
2018-09-19T12:28:12.219Z,30.80
2018-09-19T12:30:43.457Z,31.40
2018-09-19T12:33:14.819Z,31.10
2018-09-19T12:35:46.199Z,30.40
2018-09-19T12:38:17.695Z,30.00
2018-09-19T12:40:49.266Z,30.30
2018-09-19T12:43:20.551Z,30.70
2018-09-19T12:45:51.743Z,31.00
2018-09-19T12:48:22.735Z,31.00
2018-09-19T12:50:53.741Z,32.10
2018-09-19T12:53:25.307Z,32.70
2018-09-19T12:55:56.543Z,31.70
2018-09-19T12:58:30.181Z,31.20
2018-09-19T13:01:01.946Z,31.00
2018-09-19T13:03:33.598Z,30.90
2018-09-19T13:06:04.817Z,30.30
2018-09-19T13:08:36.072Z,30.10
2018-09-19T13:11:07.202Z,31.20
2018-09-19T13:13:38.271Z,31.30
2018-09-19T13:16:09.211Z,31.20
2018-09-19T13:18:40.630Z,31.60
2018-09-19T13:21:11.808Z,31.60
2018-09-19T13:23:43.186Z,32.10
2018-09-19T13:26:14.609Z,32.20
2018-09-19T13:28:45.751Z,31.70
2018-09-19T13:31:17.409Z,31.70
2018-09-19T13:33:48.516Z,32.30
2018-09-19T13:36:19.694Z,31.60
2018-09-19T13:38:50.743Z,30.90
2018-09-19T13:41:22.095Z,30.60
2018-09-19T13:43:53.128Z,30.60
2018-09-19T13:46:24.650Z,30.50
2018-09-19T13:49:02.858Z,30.50
2018-09-19T13:51:33.935Z,30.90
2018-09-19T13:54:05.142Z,30.30
2018-09-19T13:56:36.185Z,30.00
2018-09-19T13:59:07.420Z,30.00
2018-09-19T14:01:38.688Z,30.70
2018-09-19T14:04:09.890Z,31.50
2018-09-19T14:06:41.102Z,31.10
2018-09-19T14:09:12.762Z,31.40
2018-09-19T14:11:44.118Z,31.40
2018-09-19T14:14:15.279Z,31.50
2018-09-19T14:16:46.914Z,31.40
2018-09-19T14:19:18.326Z,31.40
2018-09-19T14:21:49.606Z,30.90
2018-09-19T14:24:20.776Z,30.80
2018-09-19T14:26:52.039Z,30.70
2018-09-19T14:29:23.499Z,30.90
2018-09-19T14:31:54.771Z,31.10
2018-09-19T14:34:25.956Z,31.40
2018-09-19T14:36:57.256Z,31.70
2018-09-19T14:39:28.451Z,31.50
2018-09-19T14:41:59.548Z,30.30
2018-09-19T14:44:30.935Z,29.90
2018-09-19T14:47:02.103Z,30.70
2018-09-19T14:49:33.332Z,31.40
2018-09-19T14:52:05.298Z,31.10
2018-09-19T14:54:36.901Z,31.00
2018-09-19T14:57:08.359Z,30.60
2018-09-19T14:59:39.910Z,30.60
2018-09-19T15:02:11.111Z,30.20
2018-09-19T15:04:42.403Z,30.10
2018-09-19T15:07:13.684Z,29.90
2018-09-19T15:09:45.051Z,29.80
2018-09-19T15:12:16.383Z,29.60
2018-09-19T15:14:47.858Z,29.50
2018-09-19T15:17:19.147Z,29.70
2018-09-19T15:19:50.338Z,29.60
2018-09-19T15:22:21.596Z,29.40
2018-09-19T15:24:52.929Z,29.70
2018-09-19T15:27:24.296Z,29.60
2018-09-19T15:29:55.520Z,29.40
2018-09-19T15:32:26.729Z,29.30
2018-09-19T15:34:58.570Z,29.50
2018-09-19T15:37:29.934Z,29.30
2018-09-19T15:40:01.084Z,29.30
2018-09-19T15:42:32.287Z,29.50
2018-09-19T15:45:03.668Z,29.80
2018-09-19T15:47:34.727Z,29.80
2018-09-19T15:50:06.122Z,29.80
2018-09-19T15:52:37.420Z,29.70
2018-09-19T15:55:09.827Z,29.70
2018-09-19T15:57:41.213Z,29.60
2018-09-19T16:00:12.983Z,29.30
2018-09-19T16:02:44.905Z,29.30
2018-09-19T16:05:15.940Z,29.60
2018-09-19T16:07:47.007Z,29.60
2018-09-19T16:10:18.128Z,29.50
2018-09-19T16:12:49.690Z,29.30
2018-09-19T16:15:21.204Z,29.20
2018-09-19T16:17:52.696Z,29.20
2018-09-19T16:20:23.902Z,29.10
2018-09-19T16:22:55.077Z,29.10
2018-09-19T16:25:26.732Z,29.20
2018-09-19T16:27:57.839Z,29.10
2018-09-19T16:30:29.087Z,29.00
2018-09-19T16:33:02.176Z,29.10
2018-09-19T16:35:34.796Z,29.00
2018-09-19T16:38:05.910Z,29.00
2018-09-19T16:40:37.179Z,28.90
2018-09-19T16:43:08.426Z,29.00
2018-09-19T16:45:39.675Z,29.10
2018-09-19T16:48:10.773Z,29.10
2018-09-19T16:50:41.884Z,29.00
2018-09-19T16:53:13.172Z,29.00
2018-09-19T16:55:44.564Z,29.00
2018-09-19T16:58:16.998Z,28.90
2018-09-19T17:00:48.248Z,28.90
2018-09-19T17:03:19.232Z,28.80
2018-09-19T17:05:50.274Z,28.70
2018-09-19T17:08:21.619Z,28.60
2018-09-19T17:10:52.813Z,28.40
2018-09-19T17:13:24.060Z,28.30
2018-09-19T17:15:55.670Z,28.30
2018-09-19T17:18:26.899Z,28.20
2018-09-19T17:20:58.159Z,28.10
2018-09-19T17:23:29.662Z,28.00
2018-09-19T17:26:00.743Z,27.90
2018-09-19T17:28:32.089Z,27.90
2018-09-19T17:31:04.551Z,27.80
2018-09-19T17:33:36.186Z,27.70
2018-09-19T17:36:07.498Z,27.60
2018-09-19T17:38:39.475Z,27.50
2018-09-19T17:41:10.832Z,27.50
2018-09-19T17:43:42.078Z,27.40
2018-09-19T17:46:13.764Z,27.40
2018-09-19T17:48:44.931Z,27.40
2018-09-19T17:51:16.074Z,27.30
2018-09-19T17:53:47.956Z,27.30
2018-09-19T17:56:19.696Z,27.20
2018-09-19T17:58:51.006Z,27.10
2018-09-19T18:01:22.393Z,26.90
2018-09-19T18:03:53.909Z,26.70
2018-09-19T18:06:24.987Z,26.70
2018-09-19T18:08:56.204Z,26.60
2018-09-19T18:11:27.496Z,26.40
2018-09-19T18:13:58.518Z,26.40
2018-09-19T18:16:29.994Z,26.20
2018-09-19T18:19:01.120Z,26.20
2018-09-19T18:21:32.466Z,26.10
2018-09-19T18:24:03.833Z,26.10
2018-09-19T18:26:35.062Z,26.10
2018-09-19T18:29:06.103Z,26.10
2018-09-19T18:31:37.315Z,26.00
2018-09-19T18:34:08.905Z,25.90
2018-09-19T18:36:40.257Z,25.70
2018-09-19T18:39:11.398Z,25.70
2018-09-19T18:41:42.612Z,25.70
2018-09-19T18:44:13.960Z,25.60
2018-09-19T18:46:45.358Z,25.50
2018-09-19T18:49:16.387Z,25.40
2018-09-19T18:51:47.735Z,25.30
2018-09-19T18:54:23.872Z,25.20
2018-09-19T18:56:54.867Z,25.10
2018-09-19T18:59:26.081Z,25.00
2018-09-19T19:01:57.430Z,25.00
2018-09-19T19:04:28.436Z,25.00
2018-09-19T19:06:59.611Z,25.10
2018-09-19T19:09:30.778Z,25.00
2018-09-19T19:12:02.042Z,25.00
2018-09-19T19:14:33.374Z,24.90
2018-09-19T19:17:04.944Z,24.70
2018-09-19T19:19:36.306Z,24.70
2018-09-19T19:22:07.608Z,24.70
2018-09-19T19:24:39.060Z,24.60
2018-09-19T19:27:10.124Z,24.60
2018-09-19T19:29:41.547Z,24.60
2018-09-19T19:32:12.908Z,24.50
2018-09-19T19:34:43.953Z,24.60
2018-09-19T19:37:15.523Z,24.60
2018-09-19T19:39:46.870Z,24.40
2018-09-19T19:42:18.087Z,24.40
2018-09-19T19:44:49.473Z,24.30
2018-09-19T19:47:20.682Z,24.30
2018-09-19T19:49:52.047Z,24.20
2018-09-19T19:52:23.228Z,24.10
2018-09-19T19:54:54.474Z,24.00
2018-09-19T19:57:25.794Z,23.90
2018-09-19T19:59:57.021Z,23.80
2018-09-19T20:02:28.850Z,23.80
2018-09-19T20:05:00.193Z,23.80
2018-09-19T20:07:31.322Z,23.70
2018-09-19T20:10:02.341Z,23.70
2018-09-19T20:12:33.573Z,23.60
2018-09-19T20:15:05.062Z,23.50
2018-09-19T20:17:36.283Z,23.50
2018-09-19T20:20:07.629Z,23.50
2018-09-19T20:22:38.663Z,23.50
2018-09-19T20:25:09.927Z,23.50
2018-09-19T20:27:41.254Z,23.50
2018-09-19T20:30:12.287Z,23.60
2018-09-19T20:32:43.469Z,23.60
2018-09-19T20:35:14.623Z,23.70
2018-09-19T20:37:45.791Z,23.60
2018-09-19T20:40:17.068Z,23.60
2018-09-19T20:42:48.234Z,23.60
2018-09-19T20:45:19.403Z,23.40
2018-09-19T20:47:50.404Z,23.30
2018-09-19T20:50:21.572Z,23.10
2018-09-19T20:52:53.096Z,23.00
2018-09-19T20:55:24.238Z,23.10
2018-09-19T20:57:56.268Z,23.00
2018-09-19T21:00:27.551Z,22.90
2018-09-19T21:02:58.919Z,22.90
2018-09-19T21:05:30.094Z,22.70
2018-09-19T21:08:01.295Z,22.70
2018-09-19T21:10:33.199Z,22.60
2018-09-19T21:13:04.501Z,22.60
2018-09-19T21:15:35.643Z,22.50
2018-09-19T21:22:55.135Z,22.60
2018-09-19T21:25:26.150Z,22.60
2018-09-19T21:27:57.335Z,22.50
2018-09-19T21:30:28.547Z,22.40
2018-09-19T21:32:59.732Z,22.30
2018-09-19T21:35:31.074Z,22.30
2018-09-19T21:38:02.383Z,22.30
2018-09-19T21:40:33.937Z,22.30
2018-09-19T21:43:05.236Z,22.20
2018-09-19T21:45:36.239Z,22.20
2018-09-19T21:48:07.447Z,22.40
2018-09-19T21:50:38.620Z,22.40
2018-09-19T21:53:09.812Z,22.30
2018-09-19T21:55:41.147Z,22.20
2018-09-19T21:58:12.397Z,22.20
2018-09-19T22:00:43.956Z,22.10
2018-09-19T22:03:15.639Z,22.00
2018-09-19T22:05:46.956Z,22.00
2018-09-19T22:08:18.117Z,21.80
2018-09-19T22:10:49.291Z,22.00
2018-09-19T22:13:20.815Z,22.10
2018-09-19T22:15:52.109Z,21.80
2018-09-19T22:18:23.151Z,21.70
2018-09-19T22:20:54.294Z,21.60
2018-09-19T22:24:28.514Z,21.60
2018-09-19T22:26:59.595Z,21.60
2018-09-19T22:29:30.601Z,21.70
2018-09-19T22:32:01.576Z,21.60
2018-09-19T22:34:33.811Z,21.60
2018-09-19T22:37:05.168Z,21.60
2018-09-19T22:39:36.347Z,21.80
2018-09-19T22:42:07.723Z,21.70
2018-09-19T22:44:38.901Z,21.60
2018-09-19T22:47:10.204Z,21.70
2018-09-19T22:49:41.533Z,21.70
2018-09-19T22:52:12.725Z,21.80
2018-09-19T22:54:44.126Z,21.80
2018-09-19T22:57:15.273Z,21.70
2018-09-19T22:59:46.443Z,21.50
2018-09-19T23:02:17.460Z,21.50
2018-09-19T23:04:50.000Z,21.60
2018-09-19T23:07:21.196Z,21.50
2018-09-19T23:09:52.408Z,21.50
2018-09-19T23:12:23.411Z,21.50
2018-09-19T23:14:54.927Z,21.50
2018-09-19T23:17:25.971Z,21.50
2018-09-19T23:19:57.479Z,21.50
2018-09-19T23:22:29.276Z,21.50
2018-09-19T23:25:01.866Z,21.50
2018-09-19T23:27:32.940Z,21.50
2018-09-19T23:30:04.311Z,21.60
2018-09-19T23:32:35.287Z,21.50
2018-09-19T23:35:07.013Z,21.50
2018-09-19T23:37:38.083Z,21.50
2018-09-19T23:40:09.436Z,21.30
2018-09-19T23:42:40.679Z,21.30
2018-09-19T23:45:11.890Z,21.30
2018-09-19T23:47:43.071Z,21.30
2018-09-19T23:50:14.419Z,21.30
2018-09-19T23:52:45.629Z,21.30
2018-09-19T23:55:17.164Z,21.30
2018-09-19T23:57:48.250Z,21.40
